createdAt,value
2023-04-09T00:02:15.652Z,97.30
2023-04-09T00:04:42.783Z,97.60
2023-04-09T00:07:09.636Z,97.90
2023-04-09T00:09:36.423Z,98.30
2023-04-09T00:12:03.567Z,98.80
2023-04-09T00:14:30.479Z,99.10
2023-04-09T00:16:57.342Z,99.40
2023-04-09T00:19:24.188Z,99.60
2023-04-09T00:21:51.173Z,99.80
2023-04-09T00:24:18.042Z,99.90
2023-04-09T00:26:44.857Z,99.90
2023-04-09T00:29:11.678Z,99.90
2023-04-09T00:31:38.514Z,99.90
2023-04-09T00:34:05.650Z,99.90
2023-04-09T00:36:32.485Z,99.90
2023-04-09T00:38:59.347Z,99.90
2023-04-09T00:41:26.157Z,99.90
2023-04-09T00:43:53.021Z,99.90
2023-04-09T00:46:19.827Z,99.90
2023-04-09T00:48:46.688Z,99.90
2023-04-09T00:51:13.590Z,99.90
2023-04-09T00:53:40.780Z,99.90
2023-04-09T00:56:07.876Z,99.90
2023-04-09T00:58:34.845Z,99.90
2023-04-09T01:01:01.761Z,99.90
2023-04-09T01:03:29.238Z,99.90
2023-04-09T01:06:11.498Z,99.90
2023-04-09T01:08:55.660Z,99.90
2023-04-09T01:11:51.636Z,99.90
2023-04-09T01:14:18.412Z,99.90
2023-04-09T01:16:51.926Z,99.90
2023-04-09T01:19:36.188Z,99.90
2023-04-09T01:22:04.328Z,99.90
2023-04-09T01:25:02.668Z,99.90
2023-04-09T01:27:40.339Z,99.90
2023-04-09T01:30:08.878Z,99.90
2023-04-09T01:32:38.972Z,99.90
2023-04-09T01:35:08.743Z,99.90
2023-04-09T01:37:36.846Z,99.90
2023-04-09T01:40:04.889Z,99.90
2023-04-09T01:42:32.981Z,99.90
2023-04-09T01:45:01.782Z,99.90
2023-04-09T01:47:29.699Z,99.90
2023-04-09T01:49:56.654Z,99.90
2023-04-09T01:52:23.576Z,99.90
2023-04-09T01:54:50.392Z,99.90
2023-04-09T01:57:17.196Z,99.90
2023-04-09T01:59:44.149Z,99.90
2023-04-09T02:02:17.844Z,99.90
2023-04-09T02:04:49.379Z,99.90
2023-04-09T02:07:41.857Z,99.90
2023-04-09T02:10:10.127Z,99.90
2023-04-09T02:12:38.454Z,99.90
2023-04-09T02:15:07.361Z,99.90
2023-04-09T02:17:34.332Z,99.90
2023-04-09T02:20:01.227Z,99.90
2023-04-09T02:22:28.079Z,99.90
2023-04-09T02:24:54.923Z,99.90
2023-04-09T02:27:21.765Z,99.90
2023-04-09T02:29:48.605Z,99.90
2023-04-09T02:32:15.480Z,99.90
2023-04-09T02:34:42.573Z,99.90
2023-04-09T02:37:09.448Z,99.90
2023-04-09T02:39:36.274Z,99.90
2023-04-09T02:42:03.113Z,99.90
2023-04-09T02:44:29.943Z,99.90
2023-04-09T02:46:56.796Z,99.90
2023-04-09T02:49:23.618Z,99.90
2023-04-09T02:51:50.450Z,99.90
2023-04-09T02:54:17.231Z,99.90
2023-04-09T02:56:44.046Z,99.90
2023-04-09T02:59:11.020Z,99.90
2023-04-09T03:01:37.986Z,99.90
2023-04-09T03:04:05.094Z,99.90
2023-04-09T03:06:31.989Z,99.90
2023-04-09T03:08:58.810Z,99.90
2023-04-09T03:11:25.848Z,99.90
2023-04-09T03:13:52.648Z,99.90
2023-04-09T03:16:19.598Z,99.90
2023-04-09T03:18:46.410Z,99.90
2023-04-09T03:21:14.855Z,99.90
2023-04-09T03:23:42.016Z,99.90
2023-04-09T03:26:08.895Z,99.90
2023-04-09T03:28:36.142Z,99.90
2023-04-09T03:31:03.025Z,99.90
2023-04-09T03:33:29.852Z,99.90
2023-04-09T03:35:56.702Z,99.90
2023-04-09T03:38:23.633Z,99.90
2023-04-09T03:40:50.518Z,99.90
2023-04-09T03:43:17.295Z,99.90
2023-04-09T03:45:44.171Z,99.90
2023-04-09T03:48:10.919Z,99.90
2023-04-09T03:50:41.833Z,99.90
2023-04-09T03:53:08.717Z,99.90
2023-04-09T03:55:35.630Z,99.90
2023-04-09T03:58:02.446Z,99.90
2023-04-09T04:00:29.262Z,99.90
2023-04-09T04:02:56.289Z,99.90
2023-04-09T04:05:25.458Z,99.90
2023-04-09T04:07:52.366Z,99.90
2023-04-09T04:10:19.523Z,99.90
2023-04-09T04:12:46.415Z,99.90
2023-04-09T04:15:13.406Z,99.90
2023-04-09T04:17:40.253Z,99.90
2023-04-09T04:20:07.642Z,99.90
2023-04-09T04:22:35.826Z,99.90
2023-04-09T04:25:04.123Z,99.90
2023-04-09T04:27:30.972Z,99.90
2023-04-09T04:30:02.348Z,99.90
2023-04-09T04:32:29.363Z,99.90
2023-04-09T04:34:56.270Z,99.90
2023-04-09T04:37:23.165Z,99.90
2023-04-09T04:39:50.079Z,99.90
2023-04-09T04:42:17.723Z,99.90
2023-04-09T04:44:44.914Z,99.90
2023-04-09T04:47:11.757Z,99.90
2023-04-09T04:49:38.558Z,99.90
2023-04-09T04:52:06.622Z,99.90
2023-04-09T04:54:34.560Z,99.90
2023-04-09T04:57:01.610Z,99.90
2023-04-09T04:59:28.561Z,99.90
2023-04-09T05:01:55.574Z,99.90
2023-04-09T05:04:22.519Z,99.90
2023-04-09T05:06:49.372Z,99.90
2023-04-09T05:09:16.386Z,99.90
2023-04-09T05:11:43.205Z,99.90
2023-04-09T05:14:10.043Z,99.90
2023-04-09T05:16:36.863Z,99.90
2023-04-09T05:19:03.750Z,99.90
2023-04-09T05:21:31.949Z,99.90
2023-04-09T05:23:59.176Z,99.90
2023-04-09T05:26:26.025Z,99.90
2023-04-09T05:28:53.207Z,99.90
2023-04-09T05:31:20.409Z,99.90
2023-04-09T05:33:47.342Z,99.90
2023-04-09T05:36:18.287Z,99.90
2023-04-09T05:38:47.203Z,99.90
2023-04-09T05:41:14.107Z,99.90
2023-04-09T05:43:42.763Z,99.90
2023-04-09T05:46:09.730Z,99.90
2023-04-09T05:48:36.955Z,99.90
2023-04-09T05:51:03.890Z,99.90
2023-04-09T05:53:32.074Z,99.90
2023-04-09T05:55:58.956Z,99.90
2023-04-09T05:58:25.917Z,99.90
2023-04-09T06:00:52.780Z,99.90
2023-04-09T06:03:20.624Z,99.90
2023-04-09T06:05:48.359Z,99.90
2023-04-09T06:08:15.352Z,99.90
2023-04-09T06:10:42.236Z,99.90
2023-04-09T06:13:10.431Z,99.90
2023-04-09T06:15:39.010Z,99.50
2023-04-09T06:18:05.870Z,99.70
2023-04-09T06:20:32.737Z,99.50
2023-04-09T06:22:59.525Z,99.60
2023-04-09T06:25:26.628Z,99.40
2023-04-09T06:27:53.450Z,99.20
2023-04-09T06:30:20.401Z,99.10
2023-04-09T06:32:54.585Z,99.00
2023-04-09T06:35:22.049Z,99.10
2023-04-09T06:37:48.975Z,98.70
2023-04-09T06:40:16.117Z,98.50
2023-04-09T06:42:42.954Z,98.20
2023-04-09T06:45:10.103Z,98.10
2023-04-09T06:47:37.197Z,97.80
2023-04-09T06:50:04.571Z,97.10
2023-04-09T06:52:31.436Z,97.00
2023-04-09T06:54:58.235Z,97.00
2023-04-09T06:57:26.331Z,96.70
2023-04-09T06:59:53.160Z,96.60
2023-04-09T07:02:20.553Z,96.00
2023-04-09T07:04:47.838Z,95.80
2023-04-09T07:07:14.797Z,95.50
2023-04-09T07:09:42.234Z,95.10
2023-04-09T07:12:09.036Z,94.70
2023-04-09T07:14:35.843Z,94.60
2023-04-09T07:17:02.671Z,94.50
2023-04-09T07:19:29.459Z,93.70
2023-04-09T07:21:56.227Z,93.30
2023-04-09T07:24:23.056Z,93.30
2023-04-09T07:26:52.104Z,93.40
2023-04-09T07:29:20.803Z,93.10
2023-04-09T07:31:47.930Z,92.40
2023-04-09T07:34:14.824Z,92.20
2023-04-09T07:36:42.890Z,92.10
2023-04-09T07:39:09.892Z,92.00
2023-04-09T07:41:37.562Z,91.90
2023-04-09T07:44:06.291Z,91.70
2023-04-09T07:46:33.315Z,91.10
2023-04-09T07:49:00.371Z,91.00
2023-04-09T07:51:27.795Z,91.00
2023-04-09T07:53:54.669Z,90.70
2023-04-09T07:56:21.626Z,90.50
2023-04-09T07:58:49.392Z,90.60
2023-04-09T08:01:16.401Z,90.60
2023-04-09T08:03:43.496Z,90.50
2023-04-09T08:06:10.403Z,90.40
2023-04-09T08:08:37.551Z,90.40
2023-04-09T08:11:04.632Z,90.40
2023-04-09T08:13:31.428Z,90.30
2023-04-09T08:16:04.006Z,90.20
2023-04-09T08:18:31.277Z,90.30
2023-04-09T08:20:58.254Z,90.10
2023-04-09T08:23:25.335Z,90.20
2023-04-09T08:25:52.178Z,90.30
2023-04-09T08:28:19.096Z,90.30
2023-04-09T08:30:47.720Z,90.40
2023-04-09T08:33:14.806Z,90.30
2023-04-09T08:35:42.554Z,90.40
2023-04-09T08:38:09.370Z,90.20
2023-04-09T08:40:36.744Z,90.30
2023-04-09T08:43:07.952Z,90.00
2023-04-09T08:45:35.484Z,89.90
2023-04-09T08:48:03.942Z,89.80
2023-04-09T08:50:31.762Z,89.70
2023-04-09T08:52:59.185Z,89.80
2023-04-09T08:55:26.017Z,89.80
2023-04-09T08:57:52.802Z,89.80
2023-04-09T09:00:19.790Z,89.40
2023-04-09T09:03:08.300Z,89.30
2023-04-09T09:05:46.077Z,89.50
2023-04-09T09:08:33.097Z,89.40
2023-04-09T09:11:00.021Z,89.20
2023-04-09T09:13:27.839Z,89.00
2023-04-09T09:16:27.601Z,88.80
2023-04-09T09:18:56.589Z,88.60
2023-04-09T09:21:24.170Z,88.70
2023-04-09T09:23:51.338Z,88.80
2023-04-09T09:26:24.874Z,88.70
2023-04-09T09:28:52.573Z,88.30
2023-04-09T09:31:21.604Z,88.20
2023-04-09T09:33:50.489Z,88.20
2023-04-09T09:36:32.219Z,87.70
2023-04-09T09:39:03.517Z,88.00
2023-04-09T09:41:30.704Z,87.90
2023-04-09T09:43:57.585Z,88.00
2023-04-09T09:46:26.511Z,87.90
2023-04-09T09:48:53.993Z,88.10
2023-04-09T09:51:26.581Z,88.10
2023-04-09T09:53:56.595Z,88.10
2023-04-09T09:56:32.264Z,88.00
2023-04-09T09:59:22.759Z,87.50
2023-04-09T10:01:59.820Z,87.30
2023-04-09T10:04:29.543Z,87.60
2023-04-09T10:06:57.980Z,87.50
2023-04-09T10:09:28.042Z,87.80
2023-04-09T10:11:56.910Z,87.70
2023-04-09T10:14:24.450Z,87.40
2023-04-09T10:16:51.579Z,87.20
2023-04-09T10:19:18.762Z,87.30
2023-04-09T10:21:58.108Z,87.20
2023-04-09T10:24:25.485Z,86.70
2023-04-09T10:26:55.148Z,87.00
2023-04-09T10:29:29.179Z,86.60
2023-04-09T10:32:01.750Z,87.00
2023-04-09T10:34:28.751Z,87.00
2023-04-09T10:36:59.808Z,87.20
2023-04-09T10:39:32.337Z,87.60
2023-04-09T10:42:02.318Z,87.80
2023-04-09T10:44:32.506Z,87.60
2023-04-09T10:46:59.713Z,86.90
2023-04-09T10:49:27.665Z,86.40
2023-04-09T10:52:02.657Z,86.00
2023-04-09T10:54:35.462Z,86.30
2023-04-09T10:57:08.776Z,86.90
2023-04-09T10:59:42.219Z,87.00
2023-04-09T11:02:13.824Z,86.70
2023-04-09T11:04:56.347Z,87.00
2023-04-09T11:07:25.896Z,87.50
2023-04-09T11:09:53.540Z,87.80
2023-04-09T11:12:20.359Z,87.80
2023-04-09T11:14:47.157Z,87.90
2023-04-09T11:17:14.039Z,87.50
2023-04-09T11:19:40.960Z,87.30
2023-04-09T11:22:07.843Z,87.10
2023-04-09T11:24:45.114Z,87.10
2023-04-09T11:27:12.151Z,86.80
2023-04-09T11:29:39.208Z,87.30
2023-04-09T11:32:06.154Z,87.10
2023-04-09T11:34:33.077Z,86.70
2023-04-09T11:37:05.131Z,86.50
2023-04-09T11:39:31.996Z,87.10
2023-04-09T11:41:58.900Z,87.20
2023-04-09T11:44:25.730Z,86.10
2023-04-09T11:46:53.314Z,86.30
2023-04-09T11:49:20.267Z,86.40
2023-04-09T11:51:47.218Z,85.90
2023-04-09T11:54:14.329Z,86.00
2023-04-09T11:56:41.114Z,86.20
2023-04-09T11:59:07.930Z,86.30
2023-04-09T12:01:34.884Z,86.30
2023-04-09T12:04:02.060Z,86.00
2023-04-09T12:06:29.790Z,86.20
2023-04-09T12:08:58.144Z,86.00
2023-04-09T12:11:29.466Z,85.90
2023-04-09T12:14:03.098Z,85.90
2023-04-09T12:16:36.489Z,86.20
2023-04-09T12:19:07.910Z,85.70
2023-04-09T12:21:52.174Z,85.80
2023-04-09T12:24:20.278Z,85.70
2023-04-09T12:26:48.162Z,85.80
2023-04-09T12:29:16.438Z,85.90
2023-04-09T12:31:44.386Z,85.60
2023-04-09T12:34:11.413Z,86.00
2023-04-09T12:36:39.634Z,85.80
2023-04-09T12:39:06.467Z,85.50
2023-04-09T12:41:33.288Z,86.10
2023-04-09T12:44:00.199Z,86.30
2023-04-09T12:46:28.340Z,86.20
2023-04-09T12:48:55.175Z,86.10
2023-04-09T12:51:22.025Z,85.50
2023-04-09T12:53:48.800Z,85.70
2023-04-09T12:56:15.616Z,85.40
2023-04-09T12:58:42.419Z,85.40
2023-04-09T13:01:09.411Z,84.70
2023-04-09T13:03:36.675Z,84.70
2023-04-09T13:06:03.950Z,84.00
2023-04-09T13:08:31.158Z,84.00
2023-04-09T13:10:58.046Z,84.00
2023-04-09T13:13:25.081Z,84.20
2023-04-09T13:15:52.212Z,83.80
2023-04-09T13:18:18.978Z,83.40
2023-04-09T13:20:45.848Z,83.50
2023-04-09T13:23:12.618Z,83.80
2023-04-09T13:25:39.485Z,83.80
2023-04-09T13:28:06.484Z,83.30
2023-04-09T13:30:33.355Z,83.40
2023-04-09T13:33:00.277Z,83.50
2023-04-09T13:35:27.332Z,83.00
2023-04-09T13:37:54.155Z,83.10
2023-04-09T13:40:21.018Z,83.40
2023-04-09T13:42:47.819Z,83.50
2023-04-09T13:45:14.705Z,83.60
2023-04-09T13:47:42.956Z,84.40
2023-04-09T13:50:10.634Z,84.10
2023-04-09T13:52:37.521Z,83.00
2023-04-09T13:55:04.842Z,83.40
2023-04-09T13:57:31.694Z,83.50
2023-04-09T14:00:01.870Z,83.40
2023-04-09T14:02:29.394Z,83.40
2023-04-09T14:04:57.030Z,83.70
2023-04-09T14:07:23.865Z,82.90
2023-04-09T14:09:51.275Z,82.50
2023-04-09T14:12:18.623Z,82.70
2023-04-09T14:14:45.522Z,82.70
2023-04-09T14:17:12.348Z,83.00
2023-04-09T14:19:39.241Z,82.80
2023-04-09T14:22:07.396Z,83.30
2023-04-09T14:24:39.881Z,83.70
2023-04-09T14:27:07.764Z,83.30
2023-04-09T14:29:34.973Z,83.10
2023-04-09T14:32:01.817Z,83.10
2023-04-09T14:34:31.484Z,83.10
2023-04-09T14:36:58.325Z,83.20
2023-04-09T14:39:25.569Z,84.10
2023-04-09T14:41:52.517Z,84.00
2023-04-09T14:44:19.417Z,83.20
2023-04-09T14:46:46.368Z,82.70
2023-04-09T14:49:13.239Z,81.70
2023-04-09T14:51:40.125Z,81.70
2023-04-09T14:54:06.893Z,81.60
2023-04-09T14:56:33.744Z,79.70
2023-04-09T14:59:00.603Z,79.40
2023-04-09T15:01:28.210Z,79.30
2023-04-09T15:03:55.402Z,78.80
2023-04-09T15:06:22.411Z,80.50
2023-04-09T15:08:49.195Z,79.20
2023-04-09T15:11:17.060Z,79.10
2023-04-09T15:13:43.981Z,79.00
2023-04-09T15:16:11.507Z,79.50
2023-04-09T15:18:39.538Z,78.60
2023-04-09T15:21:07.157Z,79.30
2023-04-09T15:23:35.512Z,79.20
2023-04-09T15:26:02.385Z,79.00
2023-04-09T15:28:29.196Z,79.20
2023-04-09T15:30:56.095Z,78.80
2023-04-09T15:33:22.885Z,78.60
2023-04-09T15:35:49.753Z,78.60
2023-04-09T15:38:17.204Z,78.20
2023-04-09T15:40:43.995Z,79.00
2023-04-09T15:43:10.982Z,77.70
2023-04-09T15:45:37.866Z,76.70
2023-04-09T15:48:05.449Z,76.50
2023-04-09T15:50:32.439Z,76.80
2023-04-09T15:52:59.221Z,77.40
2023-04-09T15:55:26.853Z,77.90
2023-04-09T15:57:55.076Z,78.00
2023-04-09T16:00:22.298Z,77.90
2023-04-09T16:02:49.051Z,78.00
2023-04-09T16:05:16.358Z,78.00
2023-04-09T16:07:43.133Z,78.60
2023-04-09T16:10:10.441Z,78.30
2023-04-09T16:12:37.331Z,78.30
2023-04-09T16:15:04.365Z,78.50
2023-04-09T16:17:31.484Z,78.60
2023-04-09T16:20:01.271Z,78.90
2023-04-09T16:22:29.072Z,77.20
2023-04-09T16:24:56.153Z,77.30
2023-04-09T16:27:22.968Z,77.40
2023-04-09T16:29:49.821Z,77.70
2023-04-09T16:32:16.756Z,78.20
2023-04-09T16:34:43.598Z,78.30
2023-04-09T16:37:10.584Z,77.90
2023-04-09T16:39:37.486Z,77.90
2023-04-09T16:42:04.551Z,77.60
2023-04-09T16:44:31.382Z,77.90
2023-04-09T16:46:58.188Z,78.20
2023-04-09T16:49:25.122Z,78.00
2023-04-09T16:51:53.187Z,77.70
2023-04-09T16:54:21.329Z,78.20
2023-04-09T16:56:48.824Z,79.10
2023-04-09T16:59:18.383Z,79.50
2023-04-09T17:01:45.432Z,79.90
2023-04-09T17:04:12.429Z,80.10
2023-04-09T17:06:39.243Z,80.60
2023-04-09T17:09:06.590Z,80.70
2023-04-09T17:11:33.425Z,80.80
2023-04-09T17:14:00.701Z,80.80
2023-04-09T17:16:27.800Z,80.80
2023-04-09T17:18:54.840Z,80.90
2023-04-09T17:21:22.092Z,80.80
2023-04-09T17:23:48.857Z,81.00
2023-04-09T17:26:15.783Z,80.80
2023-04-09T17:28:42.776Z,81.00
2023-04-09T17:31:16.226Z,81.40
2023-04-09T17:33:47.621Z,81.80
2023-04-09T17:36:15.056Z,82.10
2023-04-09T17:38:42.460Z,82.40
2023-04-09T17:41:09.307Z,82.70
2023-04-09T17:43:36.784Z,82.90
2023-04-09T17:46:03.951Z,83.20
2023-04-09T17:48:32.054Z,83.40
2023-04-09T17:51:22.224Z,83.70
2023-04-09T17:53:49.141Z,83.60
2023-04-09T17:56:17.095Z,83.50
2023-04-09T17:58:45.040Z,83.70
2023-04-09T18:01:15.155Z,83.70
2023-04-09T18:03:42.693Z,83.60
2023-04-09T18:06:09.821Z,83.60
2023-04-09T18:08:36.917Z,83.80
2023-04-09T18:11:12.658Z,84.30
2023-04-09T18:13:39.798Z,84.60
2023-04-09T18:16:11.040Z,84.90
2023-04-09T18:18:38.490Z,84.90
2023-04-09T18:21:06.319Z,84.80
2023-04-09T18:23:33.708Z,84.70
2023-04-09T18:26:03.444Z,84.80
2023-04-09T18:28:31.482Z,84.90
2023-04-09T18:30:58.901Z,85.10
2023-04-09T18:33:27.118Z,85.10
2023-04-09T18:36:00.214Z,85.10
2023-04-09T18:38:28.793Z,85.10
2023-04-09T18:40:58.905Z,85.00
2023-04-09T18:43:26.052Z,85.00
2023-04-09T18:45:53.111Z,85.20
2023-04-09T18:48:20.102Z,85.30
2023-04-09T18:50:47.124Z,85.40
2023-04-09T18:53:13.977Z,85.40
2023-04-09T18:55:41.009Z,85.30
2023-04-09T18:58:08.942Z,85.40
2023-04-09T19:00:36.152Z,85.40
2023-04-09T19:03:03.441Z,85.50
2023-04-09T19:05:31.827Z,85.40
2023-04-09T19:07:59.920Z,85.30
2023-04-09T19:10:27.261Z,85.30
2023-04-09T19:12:54.744Z,85.40
2023-04-09T19:15:22.332Z,85.40
2023-04-09T19:17:51.290Z,85.50
2023-04-09T19:20:19.036Z,85.70
2023-04-09T19:22:50.393Z,85.80
2023-04-09T19:25:18.779Z,86.00
2023-04-09T19:27:46.594Z,86.10
2023-04-09T19:30:13.934Z,86.20
2023-04-09T19:32:41.858Z,86.20
2023-04-09T19:35:09.476Z,86.40
2023-04-09T19:37:42.377Z,86.50
2023-04-09T19:40:11.699Z,86.50
2023-04-09T19:42:38.810Z,86.50
2023-04-09T19:45:06.650Z,86.60
2023-04-09T19:47:34.830Z,86.50
2023-04-09T19:50:01.945Z,86.70
2023-04-09T19:52:28.814Z,86.80
2023-04-09T19:54:56.869Z,86.80
2023-04-09T19:57:23.997Z,86.70
2023-04-09T19:59:53.292Z,86.70
2023-04-09T20:02:21.834Z,86.70
2023-04-09T20:04:48.980Z,86.80
2023-04-09T20:07:16.265Z,86.80
2023-04-09T20:09:43.608Z,86.90
2023-04-09T20:12:10.619Z,86.90
2023-04-09T20:14:38.390Z,86.90
2023-04-09T20:17:06.352Z,87.00
2023-04-09T20:19:33.405Z,87.00
2023-04-09T20:22:00.464Z,87.10
2023-04-09T20:24:28.246Z,87.30
2023-04-09T20:26:59.750Z,87.70
2023-04-09T20:29:26.757Z,88.00
2023-04-09T20:31:53.876Z,88.30
2023-04-09T20:34:26.562Z,88.60
2023-04-09T20:36:54.393Z,88.80
2023-04-09T20:39:22.387Z,88.90
2023-04-09T20:41:49.468Z,89.00
2023-04-09T20:44:16.673Z,89.10
2023-04-09T20:46:43.657Z,89.20
2023-04-09T20:49:11.061Z,89.40
2023-04-09T20:51:38.134Z,89.60
2023-04-09T20:54:05.010Z,89.80
2023-04-09T20:56:33.261Z,90.00
2023-04-09T20:59:00.122Z,90.00
2023-04-09T21:01:27.553Z,90.10
2023-04-09T21:03:54.594Z,90.10
2023-04-09T21:06:21.831Z,90.20
2023-04-09T21:08:48.755Z,90.20
2023-04-09T21:11:15.896Z,90.20
2023-04-09T21:13:53.776Z,90.30
2023-04-09T21:16:21.838Z,90.40
2023-04-09T21:18:48.962Z,90.40
2023-04-09T21:21:16.185Z,90.50
2023-04-09T21:23:42.952Z,90.60
2023-04-09T21:26:11.402Z,90.60
2023-04-09T21:28:38.252Z,90.70
2023-04-09T21:31:05.375Z,90.70
2023-04-09T21:33:32.255Z,90.70
2023-04-09T21:35:59.130Z,90.80
2023-04-09T21:38:26.118Z,90.80
2023-04-09T21:40:52.950Z,90.80
2023-04-09T21:43:19.738Z,90.90
2023-04-09T21:45:46.641Z,90.90
2023-04-09T21:48:13.740Z,90.90
2023-04-09T21:50:40.703Z,91.00
2023-04-09T21:53:08.271Z,91.00
2023-04-09T21:55:37.148Z,91.10
2023-04-09T21:58:04.017Z,91.10
2023-04-09T22:00:31.283Z,91.10
2023-04-09T22:03:03.876Z,91.20
2023-04-09T22:05:33.000Z,91.20
2023-04-09T22:07:59.826Z,91.20
2023-04-09T22:10:27.814Z,91.30
2023-04-09T22:12:55.421Z,91.40
2023-04-09T22:15:22.232Z,91.50
2023-04-09T22:17:49.102Z,91.50
2023-04-09T22:20:16.252Z,91.50
2023-04-09T22:22:43.109Z,91.60
2023-04-09T22:25:11.683Z,91.70
2023-04-09T22:27:38.635Z,91.80
2023-04-09T22:30:06.680Z,91.90
2023-04-09T22:32:33.721Z,92.00
2023-04-09T22:35:00.599Z,92.10
2023-04-09T22:37:27.872Z,92.20
2023-04-09T22:39:54.826Z,92.30
2023-04-09T22:42:21.731Z,92.20
2023-04-09T22:44:48.549Z,92.20
2023-04-09T22:47:16.006Z,92.20
2023-04-09T22:49:42.785Z,92.10
2023-04-09T22:52:09.623Z,92.10
2023-04-09T22:54:37.978Z,92.20
2023-04-09T22:57:04.819Z,92.20
2023-04-09T22:59:40.342Z,92.20
2023-04-09T23:02:07.943Z,92.20
2023-04-09T23:04:35.074Z,92.20
2023-04-09T23:07:02.586Z,92.20
2023-04-09T23:09:31.003Z,92.30
2023-04-09T23:11:57.968Z,92.30
2023-04-09T23:14:24.906Z,92.30
2023-04-09T23:16:51.709Z,92.30
2023-04-09T23:19:18.482Z,92.30
2023-04-09T23:21:45.290Z,92.30
2023-04-09T23:24:12.090Z,92.30
2023-04-09T23:26:38.922Z,92.30
2023-04-09T23:29:05.825Z,92.30
2023-04-09T23:31:32.661Z,92.30
2023-04-09T23:33:59.537Z,92.30
2023-04-09T23:36:26.795Z,92.30
2023-04-09T23:38:53.574Z,92.30
2023-04-09T23:41:20.980Z,92.30
2023-04-09T23:43:47.777Z,92.40
2023-04-09T23:46:14.572Z,92.40
2023-04-09T23:48:41.442Z,92.40
2023-04-09T23:51:08.359Z,92.50
2023-04-09T23:53:35.281Z,92.50
2023-04-09T23:56:02.118Z,92.60
2023-04-09T23:58:29.039Z,92.60
